Time;durP1;ratioP1;P1;durP2;ratioP2;P2;SDS_P1;SDS_P2;PMS_P1;PMS_P2;Temp;Humidity;BMP_temperature;BMP_pressure;BME280_temperature;BME280_humidity;BME280_pressure;Samples;Min_cycle;Max_cycle;Signal;HPM_P1;HPM_P2
2021/04/26 00:00:35;;;;;;;4.24;1.26;;;;;;;10.67;45.16;99312.28;349540;115;1962024;-74
2021/04/26 00:01:41;;;;;;;2.46;1.08;;;;;;;10.72;44.80;99311.64;349620;113;1962000;-74
2021/04/26 00:02:46;;;;;;;4.23;1.54;;;;;;;10.72;45.01;99312.47;348579;115;1964001;-74
2021/04/26 00:03:51;;;;;;;2.81;1.07;;;;;;;10.70;45.18;99314.55;347819;113;1961941;-74
2021/04/26 00:04:57;;;;;;;4.03;1.24;;;;;;;10.71;45.79;99309.97;348506;113;1963950;-74
2021/04/26 00:06:04;;;;;;;2.27;1.09;;;;;;;10.70;45.60;99313.73;319992;115;2485022;-73
2021/04/26 00:07:09;;;;;;;3.83;1.20;;;;;;;10.71;45.74;99312.67;347819;115;1964168;-74
2021/04/26 00:08:15;;;;;;;3.28;1.03;;;;;;;10.75;45.74;99305.80;347984;115;1960877;-74
2021/04/26 00:09:20;;;;;;;3.79;1.19;;;;;;;10.75;45.63;99317.44;348064;115;1962040;-74
2021/04/26 00:10:26;;;;;;;4.33;1.12;;;;;;;10.74;45.58;99314.94;348728;113;1960725;-74
2021/04/26 00:11:32;;;;;;;3.91;0.92;;;;;;;10.76;45.50;99320.95;349517;113;1962895;-74
2021/04/26 00:12:39;;;;;;;4.22;1.03;;;;;;;10.75;45.38;99319.31;304710;113;2778088;-75
2021/04/26 00:13:46;;;;;;;5.57;1.46;;;;;;;10.76;45.23;99313.67;343954;115;1962005;-74
2021/04/26 00:14:53;;;;;;;3.73;1.45;;;;;;;10.76;45.45;99310.97;347953;115;1962038;-75
2021/04/26 00:15:58;;;;;;;3.64;1.18;;;;;;;10.78;45.33;99319.70;320195;113;1962994;-73
2021/04/26 00:17:04;;;;;;;3.08;0.85;;;;;;;10.78;45.05;99316.17;333721;113;1965201;-74
2021/04/26 00:18:11;;;;;;;2.57;1.11;;;;;;;10.78;44.96;99310.77;348095;115;1963081;-74
2021/04/26 00:19:17;;;;;;;2.39;1.04;;;;;;;10.76;44.97;99302.05;348669;113;1962022;-74
2021/04/26 00:20:27;;;;;;;2.86;1.08;;;;;;;10.76;45.01;99299.34;314300;113;1962033;-74
2021/04/26 00:21:33;;;;;;;2.78;1.12;;;;;;;10.76;45.17;99286.66;329040;113;2301947;-73
2021/04/26 00:22:38;;;;;;;3.60;1.16;;;;;;;10.74;45.45;99285.22;331718;113;1961943;-74
2021/04/26 00:23:44;;;;;;;2.13;0.99;;;;;;;10.73;45.39;99287.09;341681;115;1962049;-74
2021/04/26 00:24:49;;;;;;;2.74;1.01;;;;;;;10.69;44.98;99283.19;348948;113;1961964;-74
2021/04/26 00:25:54;;;;;;;2.66;1.25;;;;;;;10.69;44.96;99280.48;348075;115;1962145;-74
2021/04/26 00:26:59;;;;;;;2.94;1.38;;;;;;;10.65;45.29;99279.25;347434;113;1962023;-73
2021/04/26 00:28:05;;;;;;;2.66;1.30;;;;;;;10.62;45.82;99282.38;348229;113;1961909;-74
2021/04/26 00:29:10;;;;;;;3.22;1.06;;;;;;;10.61;45.62;99287.98;348360;113;1963912;-74
2021/04/26 00:30:22;;;;;;;2.96;1.28;;;;;;;10.64;45.45;99295.66;298343;111;2174859;-72
2021/04/26 00:31:28;;;;;;;2.58;0.98;;;;;;;10.67;45.39;99293.38;323872;111;1961923;-74
2021/04/26 00:32:33;;;;;;;2.52;1.01;;;;;;;10.63;45.47;99291.31;341967;111;1963055;-75
2021/04/26 00:33:39;;;;;;;4.08;1.41;;;;;;;10.62;45.87;99292.37;356323;111;1962023;-74
2021/04/26 00:34:45;;;;;;;4.06;1.28;;;;;;;10.60;45.93;99297.15;355356;111;1964007;-74
2021/04/26 00:35:50;;;;;;;2.40;1.03;;;;;;;10.51;45.97;99293.88;357188;111;1962115;-74
2021/04/26 00:36:57;;;;;;;3.07;1.06;;;;;;;10.46;46.00;99293.69;357922;111;1961943;-74
2021/04/26 00:38:03;;;;;;;2.89;1.18;;;;;;;10.44;46.03;99298.46;312293;111;2034398;-73
2021/04/26 00:39:08;;;;;;;3.32;1.10;;;;;;;10.40;46.08;99300.77;335541;111;1962013;-73
2021/04/26 00:40:15;;;;;;;2.01;1.04;;;;;;;10.42;46.01;99295.14;356764;111;1961978;-73
2021/04/26 00:41:21;;;;;;;2.68;0.85;;;;;;;10.41;46.10;99294.31;356452;111;1962057;-73
2021/04/26 00:42:27;;;;;;;3.11;1.03;;;;;;;10.41;46.02;99288.92;315019;111;2752027;-73
2021/04/26 00:43:33;;;;;;;2.32;0.94;;;;;;;10.41;46.06;99291.62;334776;113;1961987;-73
2021/04/26 00:44:38;;;;;;;3.23;1.03;;;;;;;10.38;46.12;99278.55;343629;111;1963976;-74
2021/04/26 00:45:43;;;;;;;4.39;1.03;;;;;;;10.41;46.14;99280.00;355596;111;1961923;-74
2021/04/26 00:46:49;;;;;;;2.58;1.01;;;;;;;10.42;46.25;99285.16;355452;111;1961954;-74
2021/04/26 00:47:54;;;;;;;2.28;0.94;;;;;;;10.43;45.98;99278.73;351102;114;1961982;-74
2021/04/26 00:49:00;;;;;;;2.31;0.71;;;;;;;10.43;46.05;99269.81;351970;112;1962012;-75
2021/04/26 00:50:09;;;;;;;3.61;1.40;;;;;;;10.46;46.08;99281.01;357934;111;1961972;-74
2021/04/26 00:51:15;;;;;;;3.41;0.96;;;;;;;10.45;46.03;99273.96;357843;111;1962107;-73
2021/04/26 00:52:21;;;;;;;3.18;1.17;;;;;;;10.42;45.92;99270.84;352988;112;1965980;-74
2021/04/26 00:53:27;;;;;;;4.23;1.32;;;;;;;10.27;46.37;99271.09;307163;115;2691971;-73
2021/04/26 00:54:33;;;;;;;2.37;1.07;;;;;;;10.36;46.29;99269.83;335948;117;1966055;-76
2021/04/26 00:55:40;;;;;;;2.48;1.05;;;;;;;10.35;46.31;99265.48;354385;111;1962988;-75
2021/04/26 00:56:49;;;;;;;3.19;0.97;;;;;;;10.34;46.33;99266.51;357972;111;1961910;-74
2021/04/26 00:57:55;;;;;;;3.01;1.09;;;;;;;10.30;46.66;99266.12;357646;111;1963834;-74
2021/04/26 00:59:01;;;;;;;3.98;1.13;;;;;;;10.32;46.56;99268.62;353913;112;1961944;-74
2021/04/26 01:00:09;;;;;;;3.08;1.11;;;;;;;10.29;46.89;99261.77;320721;112;2236964;-74
2021/04/26 01:01:20;;;;;;;3.20;0.98;;;;;;;10.29;46.56;99267.17;354022;112;1962043;-74
2021/04/26 01:02:27;;;;;;;2.29;1.04;;;;;;;10.28;46.76;99270.08;311588;112;2728801;-75
2021/04/26 01:03:33;;;;;;;1.46;0.82;;;;;;;10.27;46.89;99258.45;356946;111;1961980;-72
2021/04/26 01:04:38;;;;;;;1.32;0.87;;;;;;;10.37;46.60;99259.85;357539;111;1962019;-75
2021/04/26 01:05:44;;;;;;;2.81;0.97;;;;;;;10.40;46.66;99256.72;357296;111;1961959;-74
2021/04/26 01:06:50;;;;;;;2.19;1.03;;;;;;;10.29;46.89;99253.67;357473;111;1963002;-74
2021/04/26 01:07:57;;;;;;;3.71;1.14;;;;;;;10.31;46.79;99256.14;317242;111;2662935;-74
2021/04/26 01:09:06;;;;;;;3.13;1.30;;;;;;;10.29;46.94;99245.58;356886;111;1961936;-74
2021/04/26 01:10:26;;;;;;;3.42;1.32;;;;;;;10.31;46.79;99243.47;358429;111;1962945;-74
2021/04/26 01:11:51;;;;;;;2.22;0.96;;;;;;;10.27;46.79;99227.91;357557;111;1961893;-74
2021/04/26 01:13:27;;;;;;;4.30;1.17;;;;;;;10.26;46.83;99237.03;314969;107;2059268;-74
2021/04/26 01:14:43;;;;;;;3.73;1.22;;;;;;;10.25;46.85;99236.20;364419;108;1960955;-74
2021/04/26 01:16:06;;;;;;;2.43;1.15;;;;;;;10.15;46.90;99243.92;364754;109;1960786;-73
2021/04/26 01:17:18;;;;;;;4.49;1.52;;;;;;;10.17;47.15;99243.72;362829;109;1963971;-74
2021/04/26 01:18:56;;;;;;;3.29;1.18;;;;;;;10.16;47.33;99247.45;361799;110;1960941;-73
2021/04/26 01:20:08;;;;;;;4.36;1.26;;;;;;;10.15;47.15;99253.90;361414;109;1962993;-73
2021/04/26 01:21:25;;;;;;;2.88;1.13;;;;;;;10.18;47.08;99250.77;341119;111;2302100;-74
2021/04/26 01:23:08;;;;;;;3.21;1.14;;;;;;;10.19;47.09;99253.27;336532;109;1960957;-73
2021/04/26 01:24:42;;;;;;;3.30;1.39;;;;;;;10.17;47.20;99257.22;362195;109;1961883;-73
2021/04/26 01:25:48;;;;;;;2.84;1.17;;;;;;;10.15;47.66;99262.81;362571;109;1960885;-73
2021/04/26 01:27:06;;;;;;;3.02;1.18;;;;;;;10.10;47.52;99258.05;360163;110;1961099;-73
2021/04/26 01:28:36;;;;;;;3.16;1.24;;;;;;;10.10;47.37;99249.13;353568;111;1961897;-75
2021/04/26 01:30:00;;;;;;;2.83;1.17;;;;;;;10.13;47.36;99259.49;357005;111;1961997;-74
2021/04/26 01:31:18;;;;;;;4.44;1.23;;;;;;;10.14;47.76;99258.47;356857;109;1963754;-74
2021/04/26 01:32:53;;;;;;;4.57;1.52;;;;;;;10.07;47.82;99253.08;319576;109;2034302;-74
2021/04/26 01:34:01;;;;;;;2.55;1.24;;;;;;;10.09;47.99;99248.31;336593;111;1961955;-73
2021/04/26 01:35:17;;;;;;;3.68;1.22;;;;;;;10.10;47.92;99228.36;313725;109;2061707;-75
2021/04/26 01:36:28;;;;;;;4.26;1.53;;;;;;;10.09;47.79;99229.42;343050;111;2269998;-74
2021/04/26 01:37:35;;;;;;;4.17;1.21;;;;;;;10.13;47.67;99229.81;361315;111;1961887;-73
2021/04/26 01:38:44;;;;;;;2.79;1.18;;;;;;;10.16;47.43;99231.25;361554;111;1961948;-74
2021/04/26 01:39:51;;;;;;;3.11;1.31;;;;;;;10.15;47.42;99230.43;336981;111;1961943;-73
2021/04/26 01:41:00;;;;;;;3.03;1.41;;;;;;;10.23;47.29;99243.68;363803;109;1961948;-74
2021/04/26 01:42:08;;;;;;;4.53;1.43;;;;;;;10.30;47.26;99249.92;361668;109;1962101;-74
2021/04/26 01:43:17;;;;;;;4.56;1.46;;;;;;;10.21;47.54;99253.03;304692;111;2167142;-74
2021/04/26 01:44:24;;;;;;;3.57;1.49;;;;;;;10.18;47.72;99254.29;329191;109;2549946;-74
2021/04/26 01:45:31;;;;;;;4.08;1.39;;;;;;;10.19;47.73;99260.51;349044;115;1961966;-73
2021/04/26 01:46:43;;;;;;;4.41;1.43;;;;;;;10.16;47.71;99259.09;363591;110;1961984;-74
2021/04/26 01:47:52;;;;;;;3.26;1.52;;;;;;;10.17;47.70;99246.42;329149;109;1962986;-73
2021/04/26 01:49:01;;;;;;;4.60;1.41;;;;;;;10.19;47.55;99237.07;337844;112;2289635;-74
2021/04/26 01:50:10;;;;;;;3.79;1.33;;;;;;;10.23;47.43;99243.68;356507;110;1961867;-74
2021/04/26 01:51:19;;;;;;;3.97;1.81;;;;;;;10.29;47.40;99236.63;361032;109;1962072;-74
2021/04/26 01:52:26;;;;;;;4.08;1.44;;;;;;;10.31;47.37;99237.25;363339;109;1963012;-74
2021/04/26 01:53:33;;;;;;;3.71;1.36;;;;;;;10.32;47.41;99244.32;361735;109;1961980;-73
2021/04/26 01:54:39;;;;;;;2.96;1.44;;;;;;;10.29;47.50;99250.98;330793;111;1962964;-73
2021/04/26 01:55:46;;;;;;;4.27;1.39;;;;;;;10.18;47.67;99246.19;362897;109;1961910;-74
2021/04/26 01:56:52;;;;;;;5.09;1.23;;;;;;;10.17;47.63;99239.15;361135;109;1961939;-73
2021/04/26 01:58:00;;;;;;;3.12;1.11;;;;;;;10.30;47.43;99227.50;296482;109;2237558;-74
2021/04/26 01:59:08;;;;;;;4.26;1.79;;;;;;;10.28;47.34;99226.88;362710;109;1963069;-72
2021/04/26 02:00:17;;;;;;;4.11;1.42;;;;;;;10.35;47.46;99224.98;352550;109;1962993;-73
2021/04/26 02:01:31;;;;;;;4.25;1.49;;;;;;;10.30;47.62;99222.11;355305;111;1960982;-73
2021/04/26 02:02:42;;;;;;;4.58;1.47;;;;;;;10.42;47.24;99219.53;361787;109;1961954;-73
2021/04/26 02:03:52;;;;;;;3.41;1.48;;;;;;;10.42;47.17;99231.16;351152;110;1963987;-75
2021/04/26 02:05:00;;;;;;;3.72;1.41;;;;;;;10.42;47.17;99241.96;357630;111;1962123;-74
2021/04/26 02:06:08;;;;;;;2.55;1.14;;;;;;;10.46;47.21;99242.38;326295;111;1963033;-73
2021/04/26 02:07:16;;;;;;;6.21;2.02;;;;;;;10.44;47.16;99242.58;353641;111;1963054;-73
2021/04/26 02:08:39;;;;;;;3.28;1.40;;;;;;;10.45;47.10;99244.26;361825;109;1963009;-74
2021/04/26 02:09:47;;;;;;;4.62;1.37;;;;;;;10.42;47.12;99235.73;358622;110;1961970;-74
2021/04/26 02:10:55;;;;;;;5.54;1.52;;;;;;;10.40;47.03;99237.82;358683;110;1964996;-74
2021/04/26 02:12:03;;;;;;;3.67;1.42;;;;;;;10.41;47.09;99234.09;339011;111;2341813;-74
2021/04/26 02:13:12;;;;;;;4.17;1.88;;;;;;;10.38;47.02;99235.35;361916;109;1961974;-74
2021/04/26 02:14:18;;;;;;;5.68;2.00;;;;;;;10.37;47.12;99236.38;362980;109;1960774;-74
2021/04/26 02:15:27;;;;;;;6.58;2.69;;;;;;;10.42;47.04;99236.56;348890;114;1960704;-73
2021/04/26 02:16:33;;;;;;;10.92;4.61;;;;;;;10.43;47.07;99232.84;363510;109;1960758;-75
2021/04/26 02:17:41;;;;;;;8.09;4.13;;;;;;;10.46;46.94;99227.00;363526;109;1960828;-74
2021/04/26 02:18:48;;;;;;;6.84;3.20;;;;;;;10.38;47.11;99229.95;337860;109;2402949;-74
2021/04/26 02:19:53;;;;;;;4.71;2.36;;;;;;;10.31;47.39;99224.56;364294;110;1961821;-74
2021/04/26 02:20:59;;;;;;;5.13;1.92;;;;;;;10.35;47.38;99214.19;362389;109;1961037;-73
2021/04/26 02:22:06;;;;;;;4.45;1.77;;;;;;;10.34;47.32;99217.91;355810;111;1961047;-74
2021/04/26 02:23:14;;;;;;;4.84;2.03;;;;;;;10.34;47.32;99212.52;356180;111;1960801;-74
2021/04/26 02:24:19;;;;;;;4.67;2.26;;;;;;;10.34;47.37;99202.53;362642;111;1960847;-74
2021/04/26 02:25:25;;;;;;;4.64;2.07;;;;;;;10.34;47.36;99199.84;362520;109;1960753;-74
2021/04/26 02:26:33;;;;;;;6.28;2.36;;;;;;;10.33;47.44;99186.57;350742;113;1963959;-73
2021/04/26 02:27:38;;;;;;;5.06;2.31;;;;;;;10.33;47.40;99190.09;357406;109;1961923;-74
2021/04/26 02:28:43;;;;;;;4.52;2.43;;;;;;;10.31;47.41;99186.77;361768;109;1961943;-73
2021/04/26 02:29:51;;;;;;;4.71;2.15;;;;;;;10.28;47.52;99187.21;363496;109;1962941;-73
2021/04/26 02:30:59;;;;;;;5.48;2.03;;;;;;;10.25;47.62;99192.19;331530;109;1962045;-73
2021/04/26 02:32:09;;;;;;;5.08;2.21;;;;;;;10.25;47.75;99195.72;362414;109;1961923;-73
2021/04/26 02:33:20;;;;;;;5.23;2.02;;;;;;;10.28;47.83;99189.09;304176;109;2168271;-74
2021/04/26 02:34:31;;;;;;;5.06;2.14;;;;;;;10.28;48.00;99189.91;361211;109;1962993;-74
2021/04/26 02:35:46;;;;;;;6.00;1.82;;;;;;;10.30;47.78;99185.13;339045;109;1970043;-73
2021/04/26 02:37:01;;;;;;;4.02;1.41;;;;;;;10.31;47.53;99181.38;362151;109;1963974;-73
2021/04/26 02:38:15;;;;;;;4.36;1.69;;;;;;;10.20;47.71;99176.63;355096;111;1963045;-73
2021/04/26 02:39:22;;;;;;;2.74;1.45;;;;;;;10.18;47.73;99183.29;326743;113;1963013;-73
2021/04/26 02:40:38;;;;;;;5.49;1.71;;;;;;;10.17;47.79;99184.34;340295;109;1960657;-73
2021/04/26 02:41:46;;;;;;;5.02;1.79;;;;;;;10.16;48.06;99179.97;361077;111;1961998;-74
2021/04/26 02:42:56;;;;;;;3.91;1.56;;;;;;;10.15;48.04;99179.15;361720;109;1961055;-74
2021/04/26 02:44:06;;;;;;;6.36;1.69;;;;;;;10.16;48.12;99172.73;361620;109;1961920;-73
2021/04/26 02:45:22;;;;;;;3.79;1.43;;;;;;;10.18;48.13;99176.02;362942;109;1962014;-74
2021/04/26 02:46:34;;;;;;;6.04;2.03;;;;;;;10.19;47.95;99172.29;326529;109;2566923;-74
2021/04/26 02:47:44;;;;;;;4.46;1.61;;;;;;;10.20;48.02;99170.41;319675;111;2006279;-74
2021/04/26 02:48:52;;;;;;;3.76;1.53;;;;;;;10.22;47.82;99171.03;362263;109;1961969;-73
2021/04/26 02:50:01;;;;;;;3.51;1.42;;;;;;;10.20;47.78;99167.72;362451;109;1962025;-73
2021/04/26 02:51:08;;;;;;;5.12;2.04;;;;;;;10.20;47.80;99162.31;362144;109;1961940;-74
2021/04/26 02:52:16;;;;;;;3.92;1.52;;;;;;;10.19;47.79;99164.20;315009;109;2790954;-73
2021/04/26 02:53:27;;;;;;;5.26;2.34;;;;;;;10.17;47.97;99168.97;362489;109;1962031;-73
2021/04/26 02:54:35;;;;;;;3.56;1.68;;;;;;;10.18;47.95;99162.52;362266;109;1960883;-73
2021/04/26 02:55:43;;;;;;;4.86;1.98;;;;;;;10.17;48.03;99154.66;357229;111;1964015;-74
2021/04/26 02:56:51;;;;;;;5.64;2.08;;;;;;;10.20;48.12;99152.34;327253;111;1964997;-74
2021/04/26 02:57:58;;;;;;;5.69;2.17;;;;;;;10.21;48.09;99145.06;361019;109;1962000;-73
2021/04/26 02:59:08;;;;;;;5.74;1.70;;;;;;;10.21;48.02;99142.37;315189;109;2788982;-74
2021/04/26 03:00:20;;;;;;;5.24;1.86;;;;;;;10.21;48.02;99140.48;362147;109;1961968;-73
2021/04/26 03:01:27;;;;;;;6.41;2.36;;;;;;;10.22;47.97;99142.16;351143;114;1962940;-74
2021/04/26 03:02:42;;;;;;;5.69;2.29;;;;;;;10.23;47.97;99137.59;359146;109;1961954;-73
2021/04/26 03:03:51;;;;;;;4.75;2.11;;;;;;;10.22;48.10;99146.74;315268;113;1998761;-73
2021/04/26 03:04:58;;;;;;;7.02;2.03;;;;;;;10.21;48.27;99153.98;358169;111;1960931;-74
2021/04/26 03:06:05;;;;;;;4.48;1.85;;;;;;;10.24;48.19;99158.12;334547;116;2936934;-73
2021/04/26 03:07:14;;;;;;;4.57;1.91;;;;;;;10.23;48.27;99151.91;342017;116;1961926;-74
2021/04/26 03:08:29;;;;;;;3.65;1.80;;;;;;;10.27;48.18;99158.57;362819;109;1961879;-74
2021/04/26 03:09:35;;;;;;;4.34;1.57;;;;;;;10.27;48.03;99163.12;334055;110;1961959;-74
2021/04/26 03:10:41;;;;;;;4.27;1.66;;;;;;;10.17;47.94;99147.37;361697;109;1961955;-74
2021/04/26 03:11:50;;;;;;;6.67;1.81;;;;;;;10.21;47.87;99147.77;362321;109;1961938;-74
2021/04/26 03:12:56;;;;;;;4.40;1.76;;;;;;;10.16;47.81;99147.59;361164;109;1961970;-75
2021/04/26 03:14:03;;;;;;;6.25;2.14;;;;;;;10.16;47.87;99144.88;362516;109;1961853;-74
2021/04/26 03:15:16;;;;;;;5.47;1.72;;;;;;;10.15;47.69;99148.64;346866;109;1961984;-74
2021/04/26 03:16:27;;;;;;;7.61;2.43;;;;;;;10.15;47.90;99146.77;295565;109;2238938;-73
2021/04/26 03:17:36;;;;;;;6.10;2.68;;;;;;;10.13;48.01;99151.54;331783;109;2489670;-75
2021/04/26 03:18:42;;;;;;;5.65;2.24;;;;;;;10.13;48.08;99154.24;362077;109;1962002;-74
2021/04/26 03:19:49;;;;;;;5.79;2.14;;;;;;;10.11;48.14;99150.95;319768;109;2717948;-74
2021/04/26 03:20:57;;;;;;;9.98;4.67;;;;;;;10.11;47.90;99156.34;363470;111;1964517;-74
2021/04/26 03:22:06;;;;;;;6.02;2.81;;;;;;;10.11;48.02;99162.57;362915;109;1961923;-75
2021/04/26 03:23:24;;;;;;;6.10;2.41;;;;;;;10.08;48.15;99160.30;362516;109;1960975;-74
2021/04/26 03:24:30;;;;;;;6.34;2.59;;;;;;;10.10;48.02;99165.47;362642;110;1961997;-74
2021/04/26 03:25:36;;;;;;;6.85;2.64;;;;;;;10.11;48.01;99167.14;362652;109;1960918;-74
2021/04/26 03:26:47;;;;;;;9.06;3.46;;;;;;;10.12;48.06;99166.91;355567;111;1964842;-74
2021/04/26 03:27:55;;;;;;;10.77;3.02;;;;;;;10.12;48.12;99166.09;361166;110;1961916;-73
2021/04/26 03:29:04;;;;;;;7.59;2.87;;;;;;;10.12;47.93;99155.30;316093;111;2778992;-74
2021/04/26 03:30:11;;;;;;;8.03;3.17;;;;;;;10.11;47.83;99159.05;361917;109;1961952;-74
2021/04/26 03:31:20;;;;;;;7.81;2.62;;;;;;;10.11;47.79;99159.05;361277;109;1962050;-73
2021/04/26 03:32:41;;;;;;;8.53;2.58;;;;;;;10.10;47.69;99158.20;361882;111;1962004;-74
2021/04/26 03:33:48;;;;;;;9.12;2.72;;;;;;;10.06;47.66;99153.47;317590;109;2763008;-73
2021/04/26 03:34:56;;;;;;;8.87;2.92;;;;;;;10.02;47.59;99158.45;362462;109;1961942;-75
2021/04/26 03:36:05;;;;;;;8.38;2.52;;;;;;;10.02;47.54;99163.02;362784;109;1961976;-74
2021/04/26 03:37:18;;;;;;;9.43;2.83;;;;;;;10.00;47.56;99157.00;361787;109;1962008;-74
2021/04/26 03:38:26;;;;;;;12.29;4.09;;;;;;;9.97;47.65;99154.73;362530;110;1962004;-74
2021/04/26 03:39:34;;;;;;;10.87;3.10;;;;;;;9.95;47.80;99152.27;297659;111;2224855;-74
2021/04/26 03:40:43;;;;;;;11.75;3.41;;;;;;;9.94;47.71;99156.00;318956;109;2023387;-74
2021/04/26 03:41:51;;;;;;;11.19;4.08;;;;;;;9.93;47.81;99150.83;355539;111;1961986;-73
2021/04/26 03:43:00;;;;;;;11.66;6.75;;;;;;;9.93;47.88;99150.83;354350;110;1964997;-74
2021/04/26 03:44:18;;;;;;;10.20;4.04;;;;;;;9.89;48.01;99161.20;329488;111;1962937;-75
2021/04/26 03:45:42;;;;;;;7.42;2.49;;;;;;;9.89;47.99;99159.33;312146;112;2038892;-74
2021/04/26 03:47:00;;;;;;;6.49;2.43;;;;;;;9.84;47.91;99159.17;350614;114;1962031;-74
2021/04/26 03:48:17;;;;;;;9.06;3.39;;;;;;;9.83;48.00;99156.67;314556;116;2445048;-73
2021/04/26 03:49:25;;;;;;;7.94;2.56;;;;;;;9.83;47.99;99170.98;358462;112;1961910;-74
2021/04/26 03:50:48;;;;;;;8.63;3.01;;;;;;;9.33;47.93;99094.41;355791;112;1961951;-74
2021/04/26 03:51:55;;;;;;;10.29;3.77;;;;;;;9.81;47.99;99174.93;353090;112;1962940;-74
2021/04/26 03:53:15;;;;;;;5.46;2.47;;;;;;;9.81;48.07;99183.84;356208;112;1961995;-73
2021/04/26 03:54:30;;;;;;;7.47;3.23;;;;;;;9.79;47.98;99177.01;344485;111;1961898;-74
2021/04/26 03:55:36;;;;;;;7.21;2.54;;;;;;;9.78;47.99;99176.19;358208;112;1960732;-74
2021/04/26 03:56:43;;;;;;;6.37;2.57;;;;;;;9.79;48.00;99183.26;358297;111;1960701;-74
2021/04/26 03:57:49;;;;;;;8.18;2.12;;;;;;;9.80;48.05;99187.59;354629;111;1960794;-74
2021/04/26 03:58:56;;;;;;;8.89;2.89;;;;;;;9.78;48.03;99191.55;318288;112;2643786;-74
2021/04/26 04:00:17;;;;;;;7.37;3.15;;;;;;;9.83;48.02;99189.05;358826;110;1960886;-75
2021/04/26 04:01:31;;;;;;;5.67;2.73;;;;;;;9.87;48.03;99184.86;354464;113;1961973;-74
2021/04/26 04:02:38;;;;;;;8.58;3.18;;;;;;;9.87;48.08;99187.56;355823;113;1961956;-75
2021/04/26 04:03:45;;;;;;;6.04;2.40;;;;;;;9.90;48.17;99185.28;355919;112;1962069;-74
2021/04/26 04:04:51;;;;;;;6.73;2.53;;;;;;;10.01;47.97;99180.27;331389;112;1961982;-74
2021/04/26 04:05:58;;;;;;;8.32;2.93;;;;;;;9.95;47.95;99191.89;350687;111;1961948;-75
2021/04/26 04:07:11;;;;;;;12.87;2.41;;;;;;;9.95;48.01;99179.25;312726;116;2473959;-75
2021/04/26 04:08:34;;;;;;;6.33;2.81;;;;;;;10.00;48.01;99181.29;356224;113;1964019;-74
2021/04/26 04:09:59;;;;;;;6.04;2.67;;;;;;;10.04;47.91;99177.13;355674;112;1962045;-74
2021/04/26 04:11:23;;;;;;;6.48;2.74;;;;;;;10.06;47.68;99183.97;351495;107;1961985;-74
2021/04/26 04:12:29;;;;;;;6.36;2.26;;;;;;;10.10;47.68;99177.09;361070;110;1962011;-74
2021/04/26 04:13:42;;;;;;;6.58;2.34;;;;;;;10.12;47.75;99183.10;361032;110;1962002;-75
2021/04/26 04:14:49;;;;;;;5.94;2.99;;;;;;;10.17;47.84;99178.95;360719;110;1961970;-75
2021/04/26 04:15:55;;;;;;;8.94;3.86;;;;;;;10.16;47.79;99180.83;317998;110;2717369;-75
2021/04/26 04:17:03;;;;;;;7.68;3.96;;;;;;;10.20;47.76;99182.03;360303;110;1961888;-74
2021/04/26 04:18:10;;;;;;;6.13;2.48;;;;;;;10.15;47.62;99167.53;316389;110;2733991;-74
2021/04/26 04:19:15;;;;;;;7.71;2.63;;;;;;;10.22;47.60;99182.66;339268;110;1962022;-74
2021/04/26 04:20:21;;;;;;;8.19;2.82;;;;;;;10.24;47.65;99185.12;360096;110;1960764;-74
2021/04/26 04:21:29;;;;;;;10.67;3.23;;;;;;;10.24;47.62;99174.32;360322;110;1961995;-74
2021/04/26 04:22:35;;;;;;;5.01;2.37;;;;;;;10.28;47.64;99171.02;325777;110;1961897;-74
2021/04/26 04:23:41;;;;;;;9.46;3.17;;;;;;;10.28;47.55;99175.59;355732;111;1961988;-75
2021/04/26 04:24:46;;;;;;;12.02;4.35;;;;;;;10.31;47.61;99180.55;357224;111;1962002;-74
2021/04/26 04:26:04;;;;;;;8.47;3.37;;;;;;;10.38;47.56;99181.35;354030;111;1961961;-74
2021/04/26 04:27:11;;;;;;;9.64;3.12;;;;;;;10.38;47.58;99175.13;355711;112;1961965;-75
2021/04/26 04:28:16;;;;;;;13.03;3.26;;;;;;;10.41;47.49;99183.61;355721;112;1962025;-74
2021/04/26 04:29:23;;;;;;;7.04;2.62;;;;;;;10.43;47.46;99183.41;360913;110;1960834;-74
2021/04/26 04:30:31;;;;;;;7.23;3.68;;;;;;;10.44;47.52;99172.38;357695;110;1963899;-74
2021/04/26 04:31:43;;;;;;;7.68;3.83;;;;;;;10.47;47.44;99176.52;357432;112;1962045;-74
2021/04/26 04:33:04;;;;;;;9.24;2.59;;;;;;;10.54;47.39;99182.71;340282;117;1962992;-73
2021/04/26 04:34:20;;;;;;;7.21;2.78;;;;;;;10.59;47.21;99180.19;349347;113;1962078;-74
2021/04/26 04:35:30;;;;;;;7.88;3.25;;;;;;;10.66;47.15;99180.13;334645;119;1961937;-74
2021/04/26 04:36:54;;;;;;;8.74;3.74;;;;;;;10.72;47.04;99185.50;303895;119;2519045;-74
2021/04/26 04:38:04;;;;;;;10.44;4.68;;;;;;;10.71;46.94;99185.70;336896;117;1962948;-74
2021/04/26 04:39:28;;;;;;;9.48;4.47;;;;;;;10.72;46.93;99179.27;303060;114;2809989;-74
2021/04/26 04:40:56;;;;;;;16.50;5.19;;;;;;;10.78;46.89;99184.61;332199;119;1964873;-74
2021/04/26 04:42:04;;;;;;;8.44;3.93;;;;;;;10.79;46.84;99175.45;322160;114;2426988;-74
2021/04/26 04:43:09;;;;;;;9.48;5.50;;;;;;;10.79;46.37;99182.73;344396;114;1963972;-74
2021/04/26 04:44:19;;;;;;;8.99;5.62;;;;;;;10.79;46.63;99175.45;334070;114;1961964;-75
2021/04/26 04:45:25;;;;;;;10.92;4.16;;;;;;;10.84;46.69;99174.80;348535;114;1961970;-74
2021/04/26 04:46:36;;;;;;;7.51;3.62;;;;;;;10.89;46.66;99172.27;327550;116;1963033;-74
2021/04/26 04:47:53;;;;;;;7.29;2.74;;;;;;;10.94;46.57;99177.02;304336;116;2706941;-73
2021/04/26 04:49:00;;;;;;;5.97;2.86;;;;;;;11.05;46.40;99179.00;346767;114;1961951;-73
2021/04/26 04:50:07;;;;;;;6.35;3.13;;;;;;;11.09;46.19;99182.93;345989;114;1962010;-74
2021/04/26 04:51:13;;;;;;;6.90;2.82;;;;;;;11.14;46.11;99185.80;326581;114;1965021;-74
2021/04/26 04:52:22;;;;;;;9.12;4.59;;;;;;;11.18;46.04;99186.99;347850;114;1961998;-74
2021/04/26 04:53:28;;;;;;;8.91;3.79;;;;;;;11.21;46.02;99183.84;290898;114;2163335;-75
2021/04/26 04:54:34;;;;;;;7.44;3.15;;;;;;;11.24;45.97;99182.57;342878;114;1962059;-75
2021/04/26 04:55:40;;;;;;;7.22;2.92;;;;;;;11.39;45.62;99190.34;348456;114;1961995;-74
2021/04/26 04:56:53;;;;;;;7.99;2.93;;;;;;;11.44;45.27;99185.92;297094;114;2120198;-74
2021/04/26 04:57:59;;;;;;;6.14;2.83;;;;;;;11.37;45.27;99190.56;348330;116;1961985;-74
2021/04/26 04:59:06;;;;;;;5.87;3.00;;;;;;;11.26;45.61;99185.06;347429;114;1961974;-74
2021/04/26 05:00:17;;;;;;;5.94;3.54;;;;;;;11.19;45.65;99185.11;349371;114;1962038;-74
2021/04/26 05:01:37;;;;;;;7.54;3.33;;;;;;;11.13;45.70;99184.13;312862;115;2566021;-75
2021/04/26 05:03:01;;;;;;;7.26;3.31;;;;;;;11.05;45.73;99176.30;354665;111;1961921;-76
2021/04/26 05:04:26;;;;;;;5.67;2.91;;;;;;;10.92;45.82;99173.70;357512;111;1963946;-75
2021/04/26 05:05:51;;;;;;;6.48;2.82;;;;;;;10.84;46.00;99182.08;356007;111;1961979;-76
2021/04/26 05:07:15;;;;;;;6.66;2.77;;;;;;;10.76;46.10;99185.87;350448;114;1962041;-75
2021/04/26 05:08:32;;;;;;;7.74;2.97;;;;;;;10.67;46.24;99187.20;326214;118;2904061;-75
2021/04/26 05:09:56;;;;;;;9.64;4.08;;;;;;;10.58;46.37;99181.22;324977;122;1960810;-75
2021/04/26 05:11:16;;;;;;;7.13;2.78;;;;;;;10.53;46.53;99183.73;338487;118;1962012;-75
2021/04/26 05:12:39;;;;;;;8.43;4.26;;;;;;;10.48;46.58;99184.41;340509;116;1960895;-75
2021/04/26 05:14:03;;;;;;;7.87;3.66;;;;;;;10.43;46.85;99180.71;358279;111;1961947;-75
2021/04/26 05:15:09;;;;;;;11.52;2.72;;;;;;;10.41;46.95;99180.09;358443;111;1963077;-75
2021/04/26 05:16:15;;;;;;;6.92;3.13;;;;;;;10.51;46.87;99180.45;357601;111;1962098;-75
2021/04/26 05:17:21;;;;;;;8.55;2.91;;;;;;;10.40;46.98;99181.97;329489;111;2471949;-75
2021/04/26 05:18:27;;;;;;;6.71;3.28;;;;;;;10.38;47.15;99186.75;341985;114;1961988;-75
2021/04/26 05:19:33;;;;;;;7.13;3.15;;;;;;;10.39;47.14;99182.17;352968;113;1960867;-75
2021/04/26 05:20:41;;;;;;;7.66;3.27;;;;;;;10.41;47.21;99185.49;352406;113;1961923;-74
2021/04/26 05:21:47;;;;;;;8.02;3.49;;;;;;;10.43;47.25;99178.83;349690;114;1963949;-74
2021/04/26 05:22:54;;;;;;;10.94;5.48;;;;;;;10.45;47.44;99186.70;356987;111;1961958;-75